Time;durP1;ratioP1;P1;durP2;ratioP2;P2;SDS_P1;SDS_P2;PMS_P1;PMS_P2;Temp;Humidity;BMP_temperature;BMP_pressure;BME280_temperature;BME280_humidity;BME280_pressure;Samples;Min_cycle;Max_cycle;Signal;HPM_P1;HPM_P2
2022/11/03 00:00:01;;;;;;;9.27;2.13;;;;;;;;;;5014239;28;20129;-75
2022/11/03 00:02:27;;;;;;;7.43;1.83;;;;;;;;;;5011671;28;20232;-75
2022/11/03 00:04:53;;;;;;;5.25;1.70;;;;;;;;;;5016380;28;20485;-74
2022/11/03 00:07:20;;;;;;;4.65;1.85;;;;;;;;;;4992714;28;20060;-74
2022/11/03 00:09:46;;;;;;;8.02;2.00;;;;;;;;;;5011513;28;20042;-74
2022/11/03 00:12:12;;;;;;;9.57;1.95;;;;;;;;;;4993153;28;20057;-74
2022/11/03 00:14:38;;;;;;;6.70;2.50;;;;;;;;;;4996459;28;20041;-74
2022/11/03 00:17:04;;;;;;;10.15;1.65;;;;;;;;;;5010953;28;20050;-75
2022/11/03 00:19:30;;;;;;;10.63;2.28;;;;;;;;;;5015842;28;20145;-75
2022/11/03 00:21:58;;;;;;;8.45;2.08;;;;;;;;;;5012953;28;20128;-74
2022/11/03 00:24:24;;;;;;;7.43;2.10;;;;;;;;;;4994073;28;20073;-74
2022/11/03 00:26:50;;;;;;;5.72;1.90;;;;;;;;;;4994768;28;20476;-75
2022/11/03 00:29:16;;;;;;;3.78;1.45;;;;;;;;;;4997654;28;20053;-74
2022/11/03 00:31:43;;;;;;;12.32;2.38;;;;;;;;;;5017534;28;20111;-74
2022/11/03 00:34:09;;;;;;;9.88;2.40;;;;;;;;;;5004725;28;20041;-74
2022/11/03 00:36:37;;;;;;;5.78;1.50;;;;;;;;;;5021000;28;20107;-74
2022/11/03 00:39:03;;;;;;;7.65;2.17;;;;;;;;;;5018047;28;20422;-74
2022/11/03 00:41:29;;;;;;;6.18;2.10;;;;;;;;;;4998634;28;20127;-74
2022/11/03 00:43:56;;;;;;;2.67;1.27;;;;;;;;;;4997252;28;20095;-74
2022/11/03 00:46:22;;;;;;;7.85;1.90;;;;;;;;;;5014356;28;20081;-74
2022/11/03 00:48:48;;;;;;;7.45;2.08;;;;;;;;;;5001969;28;20037;-74
2022/11/03 00:51:21;;;;;;;8.32;1.83;;;;;;;;;;5020122;28;20096;-74
2022/11/03 00:53:49;;;;;;;5.28;1.58;;;;;;;;;;5000940;28;20400;-74
2022/11/03 00:56:17;;;;;;;7.93;2.17;;;;;;;;;;5003342;28;20054;-74
2022/11/03 00:58:44;;;;;;;6.30;1.95;;;;;;;;;;5017849;28;20046;-74
2022/11/03 01:01:11;;;;;;;3.85;1.38;;;;;;;;;;5012391;28;20145;-76
2022/11/03 01:03:38;;;;;;;8.32;2.17;;;;;;;;;;4999944;28;20053;-74
2022/11/03 01:08:52;;;;;;;3.78;1.27;;;;;;;;;;5001321;28;20348;-74
2022/11/03 01:14:05;;;;;;;9.75;2.25;;;;;;;;;;5010367;28;20065;-73
2022/11/03 01:16:31;;;;;;;5.40;1.92;;;;;;;;;;5016339;28;20064;-74
2022/11/03 01:18:57;;;;;;;6.65;1.80;;;;;;;;;;4996282;28;20440;-74
2022/11/03 01:21:23;;;;;;;10.32;2.55;;;;;;;;;;4996984;28;20069;-74
2022/11/03 01:23:49;;;;;;;5.93;1.77;;;;;;;;;;5000709;28;20045;-74
2022/11/03 01:26:16;;;;;;;5.50;2.20;;;;;;;;;;5015252;28;20056;-74
2022/11/03 01:28:43;;;;;;;5.03;1.80;;;;;;;;;;5004503;28;20092;-74
2022/11/03 01:31:11;;;;;;;3.83;1.65;;;;;;;;;;5021290;28;20052;-74
2022/11/03 01:33:37;;;;;;;8.48;1.90;;;;;;;;;;5001339;28;20045;-74
2022/11/03 01:36:03;;;;;;;4.82;2.00;;;;;;;;;;5008846;28;20046;-74
2022/11/03 01:38:33;;;;;;;8.63;2.03;;;;;;;;;;4994996;28;20034;-74
2022/11/03 01:41:00;;;;;;;7.25;1.80;;;;;;;;;;5011464;28;20052;-73
2022/11/03 01:43:30;;;;;;;6.25;1.88;;;;;;;;;;4994855;28;20389;-74
2022/11/03 01:46:19;;;;;;;4.78;1.55;;;;;;;;;;5012717;28;20046;-74
2022/11/03 01:48:48;;;;;;;3.20;1.17;;;;;;;;;;5004324;28;20087;-74
2022/11/03 01:51:15;;;;;;;4.35;1.58;;;;;;;;;;5012861;28;20597;-74
2022/11/03 01:53:43;;;;;;;4.50;1.95;;;;;;;;;;5006484;28;20053;-74
2022/11/03 01:56:10;;;;;;;6.10;1.83;;;;;;;;;;5024842;28;20052;-74
2022/11/03 01:58:38;;;;;;;3.85;1.33;;;;;;;;;;5024985;28;20048;-74
2022/11/03 02:01:04;;;;;;;6.47;1.92;;;;;;;;;;5001376;28;20519;-74
2022/11/03 02:03:36;;;;;;;4.93;1.90;;;;;;;;;;5000964;28;20141;-74
2022/11/03 02:06:02;;;;;;;3.40;1.40;;;;;;;;;;5014244;28;20068;-74
2022/11/03 02:08:35;;;;;;;5.22;1.95;;;;;;;;;;4995849;28;20404;-74
2022/11/03 02:12:05;;;;;;;6.90;1.58;;;;;;;;;;4997223;28;20054;-74
2022/11/03 02:13:47;;;;;;;5.18;1.80;;;;;;;;;;5014553;28;20507;-73
2022/11/03 02:16:14;;;;;;;7.22;2.08;;;;;;;;;;4997712;28;20053;-73
2022/11/03 02:18:41;;;;;;;9.40;2.45;;;;;;;;;;5018687;28;20061;-74
2022/11/03 02:21:36;;;;;;;6.70;2.20;;;;;;;;;;4999596;28;20064;-74
2022/11/03 02:24:06;;;;;;;7.60;2.13;;;;;;;;;;4992829;28;20057;-74
2022/11/03 02:26:32;;;;;;;6.28;1.90;;;;;;;;;;5001769;28;20045;-74
2022/11/03 02:28:58;;;;;;;8.77;1.92;;;;;;;;;;5005659;28;20041;-74
2022/11/03 02:31:53;;;;;;;7.10;1.88;;;;;;;;;;5005592;28;20516;-74
2022/11/03 02:34:19;;;;;;;4.82;1.58;;;;;;;;;;4977305;28;20057;-74
2022/11/03 02:36:51;;;;;;;6.47;1.80;;;;;;;;;;4997230;28;20033;-73
2022/11/03 02:39:34;;;;;;;6.35;1.98;;;;;;;;;;5016077;28;20042;-74
2022/11/03 02:42:01;;;;;;;9.77;2.45;;;;;;;;;;5016486;28;20116;-74
2022/11/03 02:44:27;;;;;;;5.07;1.70;;;;;;;;;;4994821;28;20058;-74
2022/11/03 02:46:55;;;;;;;7.38;2.05;;;;;;;;;;5016115;28;20056;-74
2022/11/03 02:49:22;;;;;;;6.32;1.48;;;;;;;;;;5011443;28;20679;-74
2022/11/03 02:51:48;;;;;;;5.72;2.08;;;;;;;;;;5018893;28;20610;-74
2022/11/03 02:54:24;;;;;;;5.82;1.92;;;;;;;;;;5022176;28;20091;-74
2022/11/03 02:57:03;;;;;;;6.68;1.60;;;;;;;;;;5020811;28;20084;-74
2022/11/03 02:59:33;;;;;;;5.28;1.85;;;;;;;;;;5018932;28;20071;-74
2022/11/03 03:02:06;;;;;;;6.43;2.25;;;;;;;;;;5001406;28;20422;-74
2022/11/03 03:04:34;;;;;;;5.63;1.80;;;;;;;;;;4995445;28;20519;-74
2022/11/03 03:07:02;;;;;;;5.38;1.83;;;;;;;;;;5015195;28;20516;-74
2022/11/03 03:09:32;;;;;;;10.35;2.72;;;;;;;;;;4994411;28;20049;-74
2022/11/03 03:12:00;;;;;;;4.00;1.83;;;;;;;;;;4996158;28;20045;-74
2022/11/03 03:14:33;;;;;;;8.13;2.45;;;;;;;;;;5016281;28;20042;-74
2022/11/03 03:17:02;;;;;;;8.45;1.92;;;;;;;;;;4993989;28;20087;-74
2022/11/03 03:19:48;;;;;;;7.53;1.92;;;;;;;;;;5012726;28;20050;-74
2022/11/03 03:22:24;;;;;;;7.40;1.75;;;;;;;;;;5014957;28;20053;-74
2022/11/03 03:24:51;;;;;;;7.93;2.15;;;;;;;;;;5015126;28;20041;-74
2022/11/03 03:27:18;;;;;;;4.40;1.65;;;;;;;;;;4994441;28;20056;-74
2022/11/03 03:29:46;;;;;;;4.70;1.88;;;;;;;;;;4994364;28;20046;-75
2022/11/03 03:32:13;;;;;;;5.35;1.45;;;;;;;;;;5014860;28;20091;-74
2022/11/03 03:34:42;;;;;;;7.32;1.95;;;;;;;;;;4995392;28;20100;-74
2022/11/03 03:37:08;;;;;;;9.30;1.70;;;;;;;;;;5014996;28;20139;-74
2022/11/03 03:39:36;;;;;;;3.95;1.60;;;;;;;;;;4996921;28;20042;-74
2022/11/03 03:42:02;;;;;;;5.28;2.45;;;;;;;;;;4998384;28;20518;-74
2022/11/03 03:44:28;;;;;;;5.20;1.92;;;;;;;;;;5014205;28;20048;-74
2022/11/03 03:47:06;;;;;;;8.68;2.95;;;;;;;;;;5013631;28;20050;-74
2022/11/03 03:49:32;;;;;;;9.80;2.30;;;;;;;;;;4995407;28;20101;-74
2022/11/03 03:51:59;;;;;;;6.53;1.98;;;;;;;;;;5001326;28;20049;-74
2022/11/03 03:54:24;;;;;;;6.32;2.53;;;;;;;;;;5003938;28;20045;-74
2022/11/03 03:57:14;;;;;;;10.93;2.22;;;;;;;;;;5005054;28;20464;-74
2022/11/03 03:59:40;;;;;;;6.00;1.73;;;;;;;;;;5005656;28;20665;-74
2022/11/03 04:02:06;;;;;;;5.97;2.00;;;;;;;;;;5020984;28;20060;-74
2022/11/03 04:04:32;;;;;;;4.75;2.30;;;;;;;;;;5017242;28;20484;-74
2022/11/03 04:09:43;;;;;;;4.93;1.80;;;;;;;;;;5004719;28;20049;-74
2022/11/03 04:23:11;;;;;;;6.90;1.58;;;;;;;;;;5003002;28;20049;-74
2022/11/03 04:25:37;;;;;;;6.47;1.75;;;;;;;;;;5023095;28;20496;-74
2022/11/03 04:28:13;;;;;;;3.38;1.42;;;;;;;;;;5021114;28;20092;-74
2022/11/03 04:30:39;;;;;;;4.18;1.33;;;;;;;;;;5017538;28;20046;-74
2022/11/03 04:33:15;;;;;;;3.47;1.20;;;;;;;;;;4995880;28;20034;-74
2022/11/03 04:35:43;;;;;;;4.00;1.45;;;;;;;;;;5014749;28;20041;-74
2022/11/03 04:38:19;;;;;;;4.10;1.35;;;;;;;;;;5011185;28;20049;-74
2022/11/03 04:40:46;;;;;;;3.83;1.35;;;;;;;;;;5015101;28;20042;-74
2022/11/03 04:43:13;;;;;;;4.22;1.48;;;;;;;;;;5016875;28;20125;-74
2022/11/03 04:45:39;;;;;;;7.05;2.22;;;;;;;;;;4994322;28;20046;-74
2022/11/03 04:48:16;;;;;;;7.05;1.90;;;;;;;;;;4996041;28;20047;-74
2022/11/03 04:50:42;;;;;;;4.25;1.45;;;;;;;;;;5016062;28;20573;-74
2022/11/03 04:53:10;;;;;;;3.65;1.45;;;;;;;;;;4990829;28;20065;-74
2022/11/03 04:55:36;;;;;;;3.80;1.60;;;;;;;;;;4995272;28;20049;-75
2022/11/03 04:58:06;;;;;;;5.13;1.80;;;;;;;;;;5011570;28;20456;-74
2022/11/03 05:00:32;;;;;;;4.25;1.50;;;;;;;;;;4994834;28;20490;-74
2022/11/03 05:02:58;;;;;;;6.38;1.63;;;;;;;;;;5011307;28;20073;-74
2022/11/03 05:05:25;;;;;;;4.15;1.30;;;;;;;;;;5010195;28;20045;-74
2022/11/03 05:07:53;;;;;;;7.90;2.08;;;;;;;;;;4994572;28;20492;-74
2022/11/03 05:10:20;;;;;;;4.43;1.73;;;;;;;;;;4992246;28;20496;-74
2022/11/03 05:12:47;;;;;;;8.27;2.45;;;;;;;;;;5011484;28;20045;-74
2022/11/03 05:15:35;;;;;;;4.38;1.55;;;;;;;;;;4996981;28;20056;-74
2022/11/03 05:18:06;;;;;;;4.93;1.88;;;;;;;;;;5009870;28;20049;-74
2022/11/03 05:20:46;;;;;;;6.00;1.92;;;;;;;;;;4992020;28;20533;-74
2022/11/03 05:23:12;;;;;;;4.05;1.15;;;;;;;;;;5014032;28;20049;-74
2022/11/03 05:25:40;;;;;;;4.00;1.35;;;;;;;;;;4996791;28;20484;-74
2022/11/03 05:28:13;;;;;;;5.18;1.52;;;;;;;;;;4998306;28;20488;-74
2022/11/03 05:30:39;;;;;;;6.03;1.90;;;;;;;;;;4999505;28;20060;-74
2022/11/03 05:33:18;;;;;;;4.35;1.58;;;;;;;;;;5000381;28;20057;-74
2022/11/03 05:35:44;;;;;;;5.13;1.83;;;;;;;;;;5006176;28;20125;-74
2022/11/03 05:38:12;;;;;;;6.38;1.63;;;;;;;;;;4999054;28;21745;-74
2022/11/03 05:40:38;;;;;;;4.28;1.40;;;;;;;;;;5002155;28;20486;-74
2022/11/03 05:43:04;;;;;;;7.57;2.05;;;;;;;;;;5013129;28;20045;-74
2022/11/03 05:45:33;;;;;;;6.03;2.10;;;;;;;;;;4995512;28;20045;-74
2022/11/03 05:48:01;;;;;;;7.40;1.58;;;;;;;;;;5015159;28;20073;-74
2022/11/03 05:50:28;;;;;;;6.32;1.73;;;;;;;;;;5014707;28;20829;-74
2022/11/03 05:52:56;;;;;;;4.63;1.70;;;;;;;;;;4993712;28;20049;-74
2022/11/03 05:55:33;;;;;;;3.72;1.17;;;;;;;;;;4994374;28;20484;-74
2022/11/03 05:58:03;;;;;;;3.03;1.30;;;;;;;;;;5017595;28;20455;-74
2022/11/03 06:00:37;;;;;;;2.08;1.33;;;;;;;;;;5012440;28;20716;-75
2022/11/03 06:03:04;;;;;;;4.30;1.48;;;;;;;;;;4996168;28;20460;-74
2022/11/03 06:05:30;;;;;;;3.20;1.52;;;;;;;;;;5013140;28;20103;-74
2022/11/03 06:07:59;;;;;;;5.22;1.80;;;;;;;;;;5010531;28;20564;-74
2022/11/03 06:10:27;;;;;;;5.00;1.58;;;;;;;;;;5013272;28;20057;-74
2022/11/03 06:12:54;;;;;;;6.72;1.80;;;;;;;;;;4994211;28;20045;-74
2022/11/03 06:15:31;;;;;;;8.52;2.13;;;;;;;;;;5010528;28;20049;-74
2022/11/03 06:17:57;;;;;;;6.60;1.70;;;;;;;;;;5015063;28;20062;-74
2022/11/03 06:20:24;;;;;;;8.70;2.58;;;;;;;;;;4996682;28;20044;-74
2022/11/03 06:22:52;;;;;;;6.38;2.00;;;;;;;;;;5000888;28;20068;-74
2022/11/03 06:25:18;;;;;;;6.15;1.92;;;;;;;;;;4995526;28;20049;-74
2022/11/03 06:27:44;;;;;;;5.82;1.67;;;;;;;;;;4993911;28;20064;-74
2022/11/03 06:30:24;;;;;;;8.68;2.05;;;;;;;;;;5016447;28;20393;-75
2022/11/03 06:32:51;;;;;;;4.90;1.60;;;;;;;;;;4995544;28;20053;-74
2022/11/03 06:35:17;;;;;;;5.57;1.80;;;;;;;;;;4994013;28;20089;-74
2022/11/03 06:37:43;;;;;;;3.15;1.55;;;;;;;;;;5015413;28;20068;-74
2022/11/03 06:40:09;;;;;;;3.00;1.48;;;;;;;;;;5012988;28;20050;-74
2022/11/03 06:42:38;;;;;;;3.95;1.63;;;;;;;;;;5014181;28;20048;-74
2022/11/03 06:45:30;;;;;;;6.13;2.08;;;;;;;;;;5015185;28;20049;-74
2022/11/03 06:47:56;;;;;;;7.38;2.30;;;;;;;;;;4988620;28;20421;-74
2022/11/03 06:50:28;;;;;;;6.20;2.17;;;;;;;;;;5013444;28;20123;-74
2022/11/03 06:52:54;;;;;;;5.20;1.42;;;;;;;;;;5010706;28;20100;-74
2022/11/03 06:55:27;;;;;;;6.20;2.10;;;;;;;;;;5010584;28;20084;-74
2022/11/03 06:57:57;;;;;;;4.70;1.80;;;;;;;;;;4994649;28;20045;-74
2022/11/03 07:00:24;;;;;;;4.53;1.80;;;;;;;;;;5014078;28;20088;-76
2022/11/03 07:02:56;;;;;;;5.68;2.10;;;;;;;;;;4996011;28;20034;-75
2022/11/03 07:05:22;;;;;;;;;;;;;;;;;;5010647;28;20046;-74
2022/11/03 07:07:49;;;;;;;5.38;1.85;;;;;;;;;;4998255;28;20338;-74
2022/11/03 07:10:16;;;;;;;6.65;2.10;;;;;;;;;;5014139;28;20041;-75
2022/11/03 07:12:42;;;;;;;3.35;1.23;;;;;;;;;;5016968;28;20102;-75
2022/11/03 07:15:26;;;;;;;4.35;1.50;;;;;;;;;;4994851;28;20042;-75
2022/11/03 07:17:53;;;;;;;8.20;2.17;;;;;;;;;;4993441;28;20053;-75
2022/11/03 07:20:19;;;;;;;6.97;2.00;;;;;;;;;;5014114;28;20049;-75
2022/11/03 07:22:46;;;;;;;5.25;1.63;;;;;;;;;;4995909;28;20118;-75
2022/11/03 07:25:19;;;;;;;5.15;1.73;;;;;;;;;;4989270;28;20136;-75
2022/11/03 07:27:46;;;;;;;5.38;2.05;;;;;;;;;;4993394;28;20397;-75
2022/11/03 07:30:18;;;;;;;3.25;1.52;;;;;;;;;;4996586;28;20053;-75
2022/11/03 07:32:45;;;;;;;5.28;1.98;;;;;;;;;;4989783;28;20048;-75
2022/11/03 07:35:17;;;;;;;4.38;1.50;;;;;;;;;;5012599;28;20046;-75
2022/11/03 07:37:47;;;;;;;3.28;1.55;;;;;;;;;;5011725;28;20099;-75
2022/11/03 07:40:17;;;;;;;7.28;2.40;;;;;;;;;;5013802;28;20099;-75
2022/11/03 07:42:44;;;;;;;5.53;1.75;;;;;;;;;;4997061;28;20099;-74
2022/11/03 07:45:28;;;;;;;4.60;1.75;;;;;;;;;;5009783;28;20487;-74
2022/11/03 07:47:54;;;;;;;5.00;1.60;;;;;;;;;;4992383;28;20049;-72
2022/11/03 07:50:20;;;;;;;7.53;1.80;;;;;;;;;;5005903;28;20586;-72
2022/11/03 07:52:46;;;;;;;6.82;1.80;;;;;;;;;;5013718;28;20053;-73
2022/11/03 07:55:13;;;;;;;8.07;2.45;;;;;;;;;;4995856;28;20408;-73
2022/11/03 07:57:39;;;;;;;4.85;1.83;;;;;;;;;;4999948;28;20408;-73
2022/11/03 08:00:06;;;;;;;4.93;1.83;;;;;;;;;;4993521;28;20154;-73
2022/11/03 08:02:43;;;;;;;5.97;2.08;;;;;;;;;;5000398;28;20547;-72
2022/11/03 08:05:09;;;;;;;6.13;2.22;;;;;;;;;;4999326;28;20584;-74
2022/11/03 08:07:35;;;;;;;6.18;1.70;;;;;;;;;;4990924;28;20140;-75
2022/11/03 08:10:01;;;;;;;6.63;2.40;;;;;;;;;;5010757;28;20041;-76
2022/11/03 08:12:27;;;;;;;10.88;2.45;;;;;;;;;;5003010;28;20081;-74
2022/11/03 08:14:53;;;;;;;9.50;2.53;;;;;;;;;;5003399;28;20077;-74
2022/11/03 08:17:19;;;;;;;5.88;1.65;;;;;;;;;;4999352;28;20393;-74
2022/11/03 08:19:45;;;;;;;5.32;1.85;;;;;;;;;;5003529;28;20060;-70
2022/11/03 08:22:11;;;;;;;4.35;1.42;;;;;;;;;;5004620;28;20136;-70
2022/11/03 08:24:37;;;;;;;5.32;1.83;;;;;;;;;;5027383;28;20049;-70
2022/11/03 08:27:03;;;;;;;13.80;2.17;;;;;;;;;;5009090;28;20057;-70
2022/11/03 08:29:30;;;;;;;4.72;2.10;;;;;;;;;;5025792;28;20098;-70
2022/11/03 08:31:56;;;;;;;7.40;2.58;;;;;;;;;;5009492;28;20111;-73
2022/11/03 08:34:22;;;;;;;6.90;2.03;;;;;;;;;;5000410;28;20481;-68
2022/11/03 08:36:48;;;;;;;4.90;1.58;;;;;;;;;;4986321;28;20053;-69
2022/11/03 08:39:14;;;;;;;4.28;1.77;;;;;;;;;;4987074;28;20477;-69
2022/11/03 08:41:40;;;;;;;5.15;2.03;;;;;;;;;;5004582;28;20048;-69
2022/11/03 08:44:05;;;;;;;7.82;1.95;;;;;;;;;;5008641;28;20104;-76
2022/11/03 08:46:31;;;;;;;4.97;2.15;;;;;;;;;;4980634;28;20502;-74
2022/11/03 08:48:57;;;;;;;9.02;2.90;;;;;;;;;;4979492;28;20408;-69
2022/11/03 08:51:23;;;;;;;10.05;2.28;;;;;;;;;;4999263;28;20054;-69
2022/11/03 08:53:52;;;;;;;8.60;2.92;;;;;;;;;;4976129;28;20121;-69
2022/11/03 08:56:19;;;;;;;7.22;2.17;;;;;;;;;;4974443;28;20077;-68
2022/11/03 08:58:45;;;;;;;5.18;2.20;;;;;;;;;;4984470;28;20473;-67
2022/11/03 09:01:11;;;;;;;5.13;1.98;;;;;;;;;;4981132;28;20042;-68
2022/11/03 09:03:37;;;;;;;4.57;1.55;;;;;;;;;;4985536;28;20085;-69
2022/11/03 09:06:03;;;;;;;6.75;2.08;;;;;;;;;;4984328;28;20378;-69
2022/11/03 09:08:29;;;;;;;5.45;2.45;;;;;;;;;;4983788;28;20053;-69
2022/11/03 09:10:55;;;;;;;2.58;1.85;;;;;;;;;;4989944;28;20371;-68
2022/11/03 09:13:21;;;;;;;6.55;2.40;;;;;;;;;;4988816;28;20140;-68
2022/11/03 09:15:47;;;;;;;8.68;2.40;;;;;;;;;;4998082;28;20488;-68
2022/11/03 09:18:13;;;;;;;5.47;1.95;;;;;;;;;;4994404;28;20412;-68
2022/11/03 09:20:39;;;;;;;6.28;1.80;;;;;;;;;;5009291;28;20049;-68
2022/11/03 09:23:05;;;;;;;4.70;1.65;;;;;;;;;;5002376;28;20113;-68
2022/11/03 09:25:31;;;;;;;5.47;2.58;;;;;;;;;;4980882;28;20081;-68
2022/11/03 09:27:57;;;;;;;7.68;2.50;;;;;;;;;;4986788;28;20131;-69
2022/11/03 09:30:23;;;;;;;6.75;2.13;;;;;;;;;;4988508;28;20037;-68
2022/11/03 09:32:49;;;;;;;6.15;2.28;;;;;;;;;;4990554;28;20075;-66
2022/11/03 09:35:15;;;;;;;6.05;1.90;;;;;;;;;;5009754;28;20042;-67
2022/11/03 09:37:42;;;;;;;5.57;2.20;;;;;;;;;;5008634;28;20092;-67
2022/11/03 09:40:09;;;;;;;8.38;2.70;;;;;;;;;;5010993;28;20465;-66
2022/11/03 09:42:36;;;;;;;5.20;2.00;;;;;;;;;;5009589;28;20489;-66
2022/11/03 09:45:03;;;;;;;5.05;1.80;;;;;;;;;;4991773;28;20038;-66
2022/11/03 09:47:33;;;;;;;3.95;1.80;;;;;;;;;;5009793;28;20493;-68
2022/11/03 09:50:00;;;;;;;6.05;1.75;;;;;;;;;;4992683;28;20064;-67
2022/11/03 09:52:26;;;;;;;5.53;1.83;;;;;;;;;;5009004;28;20077;-66
2022/11/03 09:54:56;;;;;;;7.38;2.60;;;;;;;;;;4992368;28;20052;-67
2022/11/03 09:57:23;;;;;;;10.57;2.63;;;;;;;;;;5009490;28;20497;-67
2022/11/03 09:59:50;;;;;;;4.97;2.00;;;;;;;;;;4991698;28;20053;-67
2022/11/03 10:02:22;;;;;;;7.50;2.55;;;;;;;;;;4984845;28;20057;-67
2022/11/03 10:04:48;;;;;;;7.68;2.28;;;;;;;;;;5004772;28;20108;-67
2022/11/03 10:07:14;;;;;;;4.93;1.95;;;;;;;;;;4982044;28;20481;-67
2022/11/03 10:09:43;;;;;;;7.43;2.55;;;;;;;;;;4982039;28;20549;-67
2022/11/03 10:12:10;;;;;;;9.85;2.08;;;;;;;;;;4986187;28;20104;-67
2022/11/03 10:14:36;;;;;;;10.07;2.10;;;;;;;;;;4983311;28;20053;-67
2022/11/03 10:17:02;;;;;;;4.40;2.25;;;;;;;;;;4998354;28;20239;-66
2022/11/03 10:19:28;;;;;;;3.97;1.92;;;;;;;;;;4981030;28;20104;-66
2022/11/03 10:21:54;;;;;;;6.47;1.98;;;;;;;;;;4996245;28;20046;-66
2022/11/03 10:24:20;;;;;;;6.95;2.50;;;;;;;;;;4979786;28;20042;-67
2022/11/03 10:26:51;;;;;;;6.07;2.17;;;;;;;;;;4997873;28;20046;-67
2022/11/03 10:29:18;;;;;;;8.55;2.13;;;;;;;;;;4979071;28;20042;-67
2022/11/03 10:31:48;;;;;;;8.43;2.25;;;;;;;;;;4998763;28;20046;-67
2022/11/03 10:34:23;;;;;;;4.50;1.52;;;;;;;;;;4979163;28;20290;-68
2022/11/03 10:36:49;;;;;;;5.35;1.60;;;;;;;;;;4987945;28;20050;-68
2022/11/03 10:39:29;;;;;;;6.03;1.55;;;;;;;;;;4997015;28;20049;-68
2022/11/03 10:41:59;;;;;;;6.60;2.28;;;;;;;;;;4979754;28;20397;-68
2022/11/03 10:44:28;;;;;;;4.82;1.67;;;;;;;;;;4997605;28;20054;-68
2022/11/03 10:46:57;;;;;;;6.97;1.52;;;;;;;;;;4980692;28;20066;-68
2022/11/03 10:49:23;;;;;;;7.57;2.10;;;;;;;;;;4979031;28;20038;-68
2022/11/03 10:51:53;;;;;;;3.53;1.50;;;;;;;;;;4980290;28;20117;-68
2022/11/03 10:54:20;;;;;;;5.25;2.13;;;;;;;;;;4984692;28;20046;-69
2022/11/03 10:56:47;;;;;;;8.00;2.30;;;;;;;;;;4981407;28;20405;-68
2022/11/03 10:59:18;;;;;;;6.40;2.25;;;;;;;;;;4974296;28;20113;-68
2022/11/03 11:01:43;;;;;;;8.38;2.22;;;;;;;;;;5000472;28;20503;-69
2022/11/03 11:04:17;;;;;;;4.05;1.83;;;;;;;;;;4979907;28;20038;-68
2022/11/03 11:06:43;;;;;;;9.70;2.40;;;;;;;;;;4991969;28;20046;-67
2022/11/03 11:09:10;;;;;;;6.07;2.08;;;;;;;;;;4977147;28;20357;-67
2022/11/03 11:11:36;;;;;;;7.72;2.30;;;;;;;;;;4979614;28;20045;-67
2022/11/03 11:14:23;;;;;;;6.43;2.15;;;;;;;;;;4980152;28;20068;-67
2022/11/03 11:16:49;;;;;;;4.93;2.10;;;;;;;;;;4974944;28;20141;-68
2022/11/03 11:19:15;;;;;;;7.07;2.35;;;;;;;;;;4985234;28;20140;-73
2022/11/03 11:21:41;;;;;;;6.00;1.55;;;;;;;;;;4985602;28;20049;-68
2022/11/03 11:24:09;;;;;;;5.53;1.58;;;;;;;;;;4984077;28;20461;-68
2022/11/03 11:26:35;;;;;;;3.60;1.88;;;;;;;;;;4990549;28;20057;-66
2022/11/03 11:29:07;;;;;;;3.78;1.65;;;;;;;;;;4988964;28;20050;-68
2022/11/03 11:31:34;;;;;;;5.82;2.33;;;;;;;;;;4976204;28;20073;-68
2022/11/03 11:34:15;;;;;;;4.03;1.83;;;;;;;;;;4974310;28;20048;-68
2022/11/03 11:36:54;;;;;;;4.22;1.35;;;;;;;;;;4977150;28;20089;-68
2022/11/03 11:39:20;;;;;;;4.97;2.22;;;;;;;;;;4987195;28;20046;-68
2022/11/03 11:42:04;;;;;;;5.55;1.92;;;;;;;;;;4970939;28;20034;-68
2022/11/03 11:44:42;;;;;;;4.05;1.48;;;;;;;;;;4990150;28;20046;-68
2022/11/03 11:47:20;;;;;;;5.43;2.53;;;;;;;;;;4979790;28;20091;-68
2022/11/03 11:49:46;;;;;;;7.57;2.67;;;;;;;;;;4977276;28;20187;-67
2022/11/03 11:52:12;;;;;;;3.92;2.00;;;;;;;;;;4981040;28;20050;-67
2022/11/03 11:54:41;;;;;;;4.88;1.40;;;;;;;;;;5004670;28;20100;-67
2022/11/03 11:57:18;;;;;;;4.35;1.55;;;;;;;;;;4995800;28;20084;-67
2022/11/03 11:59:47;;;;;;;4.63;1.35;;;;;;;;;;5009955;28;20037;-68
2022/11/03 12:02:18;;;;;;;6.32;1.98;;;;;;;;;;4994367;28;20331;-68
2022/11/03 12:04:48;;;;;;;3.55;1.60;;;;;;;;;;5012847;28;20044;-68
2022/11/03 12:07:14;;;;;;;6.20;2.47;;;;;;;;;;5006578;28;20050;-68
2022/11/03 12:09:42;;;;;;;4.35;1.60;;;;;;;;;;4992707;28;20139;-68
2022/11/03 12:12:08;;;;;;;4.05;2.03;;;;;;;;;;5012505;28;20050;-68
2022/11/03 12:14:35;;;;;;;2.63;1.38;;;;;;;;;;4990629;28;20045;-68
2022/11/03 12:17:22;;;;;;;3.80;1.92;;;;;;;;;;4989510;28;20046;-68
2022/11/03 12:19:51;;;;;;;5.10;2.08;;;;;;;;;;4988794;28;20522;-67
2022/11/03 12:22:23;;;;;;;4.15;1.73;;;;;;;;;;5006225;28;20053;-67
2022/11/03 12:24:50;;;;;;;4.20;1.50;;;;;;;;;;4984424;28;20103;-77
2022/11/03 12:27:25;;;;;;;3.15;1.35;;;;;;;;;;4997888;28;20046;-66
2022/11/03 12:29:55;;;;;;;5.07;1.80;;;;;;;;;;4992994;28;20041;-67
2022/11/03 12:32:21;;;;;;;10.00;2.22;;;;;;;;;;4992172;28;20208;-67
2022/11/03 12:34:47;;;;;;;6.13;1.85;;;;;;;;;;4991248;28;20038;-68
2022/11/03 12:37:13;;;;;;;4.28;1.88;;;;;;;;;;4975345;28;20072;-68
2022/11/03 12:39:40;;;;;;;3.67;1.55;;;;;;;;;;4981205;28;20045;-67
2022/11/03 12:42:06;;;;;;;2.65;1.40;;;;;;;;;;4998394;28;20080;-68
2022/11/03 12:44:32;;;;;;;4.22;2.00;;;;;;;;;;5005550;28;20080;-68
2022/11/03 12:46:58;;;;;;;4.72;1.45;;;;;;;;;;4989452;28;20045;-68
2022/11/03 12:49:25;;;;;;;3.40;1.65;;;;;;;;;;4988621;28;20072;-68
2022/11/03 12:51:51;;;;;;;3.38;1.73;;;;;;;;;;4989323;28;20484;-68
2022/11/03 12:54:17;;;;;;;7.80;2.75;;;;;;;;;;4989024;28;20053;-68
2022/11/03 12:56:43;;;;;;;7.10;2.67;;;;;;;;;;4989131;28;20045;-68
2022/11/03 12:59:09;;;;;;;4.38;1.95;;;;;;;;;;5006093;28;20103;-68
2022/11/03 13:01:35;;;;;;;7.32;1.92;;;;;;;;;;4987860;28;20045;-68
2022/11/03 13:04:03;;;;;;;2.65;1.38;;;;;;;;;;5006622;28;20049;-68
2022/11/03 13:06:29;;;;;;;5.63;1.38;;;;;;;;;;4988724;28;20077;-68
2022/11/03 13:08:55;;;;;;;2.83;1.50;;;;;;;;;;5005991;28;20143;-68
2022/11/03 13:14:06;;;;;;;5.88;1.67;;;;;;;;;;4989012;28;20042;-68
2022/11/03 13:16:32;;;;;;;7.07;2.13;;;;;;;;;;4988264;28;20675;-68
2022/11/03 13:18:58;;;;;;;3.88;1.95;;;;;;;;;;5006492;28;20054;-68
2022/11/03 13:21:24;;;;;;;4.55;2.55;;;;;;;;;;5006330;28;20089;-68
2022/11/03 13:23:51;;;;;;;6.57;2.83;;;;;;;;;;4988373;28;20056;-68
2022/11/03 13:26:18;;;;;;;5.25;2.20;;;;;;;;;;5006488;28;20061;-69
2022/11/03 13:28:44;;;;;;;4.80;2.10;;;;;;;;;;4989459;28;20489;-69
2022/11/03 13:31:11;;;;;;;5.07;1.90;;;;;;;;;;4988915;28;20061;-69
2022/11/03 13:33:37;;;;;;;5.80;2.10;;;;;;;;;;4989156;28;20053;-69
2022/11/03 13:36:03;;;;;;;3.13;1.35;;;;;;;;;;5006379;28;20117;-69
2022/11/03 13:38:29;;;;;;;4.05;1.63;;;;;;;;;;4987831;28;20046;-69
2022/11/03 13:40:55;;;;;;;4.75;1.83;;;;;;;;;;4989114;28;20050;-69
2022/11/03 13:43:21;;;;;;;2.75;1.80;;;;;;;;;;5006401;28;20436;-69
2022/11/03 13:45:47;;;;;;;2.95;1.30;;;;;;;;;;5005406;28;20054;-69
2022/11/03 13:48:13;;;;;;;4.72;1.45;;;;;;;;;;4990886;28;20103;-69
2022/11/03 13:50:39;;;;;;;2.15;1.45;;;;;;;;;;5010598;28;20436;-69
2022/11/03 13:53:06;;;;;;;6.30;1.85;;;;;;;;;;5008911;28;20052;-69
2022/11/03 13:55:32;;;;;;;3.97;1.60;;;;;;;;;;4992602;28;20423;-68
2022/11/03 13:57:58;;;;;;;4.50;1.65;;;;;;;;;;4992052;28;20053;-67
2022/11/03 14:00:24;;;;;;;4.40;1.67;;;;;;;;;;4983388;28;20049;-67
2022/11/03 14:02:50;;;;;;;4.43;1.80;;;;;;;;;;5006012;28;20129;-68
2022/11/03 14:05:16;;;;;;;6.43;2.13;;;;;;;;;;4976368;28;20125;-69
2022/11/03 14:07:42;;;;;;;3.05;2.00;;;;;;;;;;4984960;28;20049;-69
2022/11/03 14:10:09;;;;;;;6.43;2.00;;;;;;;;;;5001846;28;20082;-68
2022/11/03 14:12:35;;;;;;;3.50;1.35;;;;;;;;;;4980699;28;20440;-68
2022/11/03 14:15:03;;;;;;;3.05;1.42;;;;;;;;;;4989385;28;20044;-68
2022/11/03 14:17:29;;;;;;;2.33;1.20;;;;;;;;;;4985815;28;20445;-68
2022/11/03 14:19:55;;;;;;;4.22;1.30;;;;;;;;;;4980866;28;20050;-68
2022/11/03 14:22:22;;;;;;;4.70;1.63;;;;;;;;;;4997856;28;20047;-69
2022/11/03 14:24:49;;;;;;;4.35;1.48;;;;;;;;;;4987703;28;20042;-68
2022/11/03 14:27:15;;;;;;;8.00;1.48;;;;;;;;;;4996777;28;20053;-69
2022/11/03 14:29:42;;;;;;;2.83;1.42;;;;;;;;;;4985399;28;20337;-68
2022/11/03 14:32:09;;;;;;;3.42;1.67;;;;;;;;;;4988820;28;20451;-68
2022/11/03 14:34:35;;;;;;;4.38;1.50;;;;;;;;;;4988403;28;20034;-68
2022/11/03 14:37:01;;;;;;;4.95;1.92;;;;;;;;;;4981964;28;20423;-68
2022/11/03 14:39:27;;;;;;;1.20;0.88;;;;;;;;;;4994825;28;20157;-68
2022/11/03 14:42:02;;;;;;;3.92;1.38;;;;;;;;;;4985977;28;20046;-68
2022/11/03 14:44:29;;;;;;;3.15;1.00;;;;;;;;;;4985840;28;20527;-68
2022/11/03 14:46:55;;;;;;;1.60;0.93;;;;;;;;;;5003024;28;20500;-68
2022/11/03 14:49:21;;;;;;;1.70;0.88;;;;;;;;;;4993277;28;20039;-68
2022/11/03 14:51:47;;;;;;;2.58;0.88;;;;;;;;;;5008610;28;20050;-69
2022/11/03 14:54:13;;;;;;;4.22;0.98;;;;;;;;;;4990260;28;20099;-69
2022/11/03 14:56:39;;;;;;;0.80;0.70;;;;;;;;;;4981885;28;20485;-69
2022/11/03 14:59:05;;;;;;;4.32;1.02;;;;;;;;;;4989577;28;20042;-68
2022/11/03 15:01:32;;;;;;;1.23;0.60;;;;;;;;;;4994718;28;20559;-68
2022/11/03 15:03:58;;;;;;;1.50;0.60;;;;;;;;;;4985075;28;20044;-68
2022/11/03 15:06:24;;;;;;;1.17;0.68;;;;;;;;;;4975149;28;20406;-68
2022/11/03 15:08:50;;;;;;;3.90;0.93;;;;;;;;;;4987593;28;20053;-68
2022/11/03 15:11:16;;;;;;;3.13;1.13;;;;;;;;;;5008096;28;20045;-68